sensor_id;sensor_type;location;lat;lon;timestamp;temperature;humidity
38241;DHT22;24037;49.536;8.500;2023-12-07T00:02:18;0.80;99.90
38241;DHT22;24037;49.536;8.500;2023-12-07T00:04:44;0.70;99.90
38241;DHT22;24037;49.536;8.500;2023-12-07T00:07:11;0.70;99.90
38241;DHT22;24037;49.536;8.500;2023-12-07T00:09:37;0.70;99.90
38241;DHT22;24037;49.536;8.500;2023-12-07T00:12:03;0.60;99.90
38241;DHT22;24037;49.536;8.500;2023-12-07T00:14:29;0.60;99.90
38241;DHT22;24037;49.536;8.500;2023-12-07T00:16:55;0.50;99.90
38241;DHT22;24037;49.536;8.500;2023-12-07T00:19:23;0.50;99.90
38241;DHT22;24037;49.536;8.500;2023-12-07T00:21:49;0.50;99.90
38241;DHT22;24037;49.536;8.500;2023-12-07T00:24:15;0.40;99.90
38241;DHT22;24037;49.536;8.500;2023-12-07T00:26:41;0.40;99.90
38241;DHT22;24037;49.536;8.500;2023-12-07T00:29:08;0.30;99.90
38241;DHT22;24037;49.536;8.500;2023-12-07T00:31:34;0.20;99.90
38241;DHT22;24037;49.536;8.500;2023-12-07T00:34:00;0.10;99.90
38241;DHT22;24037;49.536;8.500;2023-12-07T00:36:26;0.00;99.90
38241;DHT22;24037;49.536;8.500;2023-12-07T00:38:52;0.00;99.90
38241;DHT22;24037;49.536;8.500;2023-12-07T00:41:18;-0.10;99.90
38241;DHT22;24037;49.536;8.500;2023-12-07T00:43:44;-0.20;99.90
38241;DHT22;24037;49.536;8.500;2023-12-07T00:46:11;-0.30;99.90
38241;DHT22;24037;49.536;8.500;2023-12-07T00:48:37;-0.30;99.90
38241;DHT22;24037;49.536;8.500;2023-12-07T00:51:03;-0.40;99.90
38241;DHT22;24037;49.536;8.500;2023-12-07T00:53:29;-0.50;99.90
38241;DHT22;24037;49.536;8.500;2023-12-07T00:55:55;-0.50;99.90
38241;DHT22;24037;49.536;8.500;2023-12-07T00:58:22;-0.50;99.90
38241;DHT22;24037;49.536;8.500;2023-12-07T01:00:48;-0.50;99.90
38241;DHT22;24037;49.536;8.500;2023-12-07T01:03:15;-0.50;99.90
38241;DHT22;24037;49.536;8.500;2023-12-07T01:05:41;-0.40;99.90
38241;DHT22;24037;49.536;8.500;2023-12-07T01:08:07;-0.40;99.90
38241;DHT22;24037;49.536;8.500;2023-12-07T01:10:33;-0.40;99.90
38241;DHT22;24037;49.536;8.500;2023-12-07T01:12:59;-0.40;99.90
38241;DHT22;24037;49.536;8.500;2023-12-07T01:15:25;-0.50;99.90
38241;DHT22;24037;49.536;8.500;2023-12-07T01:17:52;-0.50;99.90
38241;DHT22;24037;49.536;8.500;2023-12-07T01:20:18;-0.50;99.90
38241;DHT22;24037;49.536;8.500;2023-12-07T01:22:44;-0.60;99.90
38241;DHT22;24037;49.536;8.500;2023-12-07T01:25:11;-0.60;99.90
38241;DHT22;24037;49.536;8.500;2023-12-07T01:27:38;-0.60;99.90
38241;DHT22;24037;49.536;8.500;2023-12-07T01:30:04;-0.60;99.90
38241;DHT22;24037;49.536;8.500;2023-12-07T01:32:31;-0.60;99.90
38241;DHT22;24037;49.536;8.500;2023-12-07T01:34:57;-0.60;99.90
38241;DHT22;24037;49.536;8.500;2023-12-07T01:37:23;-0.60;99.90
38241;DHT22;24037;49.536;8.500;2023-12-07T01:39:49;-0.50;99.90
38241;DHT22;24037;49.536;8.500;2023-12-07T01:42:15;-0.60;99.90
38241;DHT22;24037;49.536;8.500;2023-12-07T01:44:42;-0.60;99.90
38241;DHT22;24037;49.536;8.500;2023-12-07T01:47:08;-0.60;99.90
38241;DHT22;24037;49.536;8.500;2023-12-07T01:49:36;-0.60;99.90
38241;DHT22;24037;49.536;8.500;2023-12-07T01:52:02;-0.60;99.90
38241;DHT22;24037;49.536;8.500;2023-12-07T01:54:29;-0.60;99.90
38241;DHT22;24037;49.536;8.500;2023-12-07T01:56:56;-0.60;99.90
38241;DHT22;24037;49.536;8.500;2023-12-07T01:59:23;-0.70;99.90
38241;DHT22;24037;49.536;8.500;2023-12-07T02:01:50;-0.70;99.90
38241;DHT22;24037;49.536;8.500;2023-12-07T02:04:17;-0.80;99.90
38241;DHT22;24037;49.536;8.500;2023-12-07T02:06:43;-0.80;99.90
38241;DHT22;24037;49.536;8.500;2023-12-07T02:09:09;-0.80;99.90
38241;DHT22;24037;49.536;8.500;2023-12-07T02:11:35;-0.90;99.90
38241;DHT22;24037;49.536;8.500;2023-12-07T02:14:02;-0.90;99.90
38241;DHT22;24037;49.536;8.500;2023-12-07T02:16:39;-0.80;99.90
38241;DHT22;24037;49.536;8.500;2023-12-07T02:22:10;-0.80;99.90
38241;DHT22;24037;49.536;8.500;2023-12-07T02:24:38;-0.90;99.90
38241;DHT22;24037;49.536;8.500;2023-12-07T02:27:11;-1.00;99.90
38241;DHT22;24037;49.536;8.500;2023-12-07T02:29:37;-1.00;99.90
38241;DHT22;24037;49.536;8.500;2023-12-07T02:32:04;-1.00;99.90
38241;DHT22;24037;49.536;8.500;2023-12-07T02:34:30;-1.10;99.90
38241;DHT22;24037;49.536;8.500;2023-12-07T02:36:58;-1.20;99.90
38241;DHT22;24037;49.536;8.500;2023-12-07T02:39:25;-1.20;99.90
38241;DHT22;24037;49.536;8.500;2023-12-07T02:41:52;-1.20;99.90
38241;DHT22;24037;49.536;8.500;2023-12-07T02:44:19;-1.20;99.90
38241;DHT22;24037;49.536;8.500;2023-12-07T02:46:45;-1.30;99.90
38241;DHT22;24037;49.536;8.500;2023-12-07T02:49:11;-1.30;99.90
38241;DHT22;24037;49.536;8.500;2023-12-07T02:51:38;-1.20;99.90
38241;DHT22;24037;49.536;8.500;2023-12-07T02:54:04;-1.20;99.90
38241;DHT22;24037;49.536;8.500;2023-12-07T02:56:30;-1.30;99.90
38241;DHT22;24037;49.536;8.500;2023-12-07T02:58:56;-1.30;99.90
38241;DHT22;24037;49.536;8.500;2023-12-07T03:01:22;-1.40;99.90
38241;DHT22;24037;49.536;8.500;2023-12-07T03:03:48;-1.40;99.90
38241;DHT22;24037;49.536;8.500;2023-12-07T03:06:14;-1.40;99.90
38241;DHT22;24037;49.536;8.500;2023-12-07T03:08:42;-1.40;99.90
38241;DHT22;24037;49.536;8.500;2023-12-07T03:11:08;-1.40;99.90
38241;DHT22;24037;49.536;8.500;2023-12-07T03:13:34;-1.40;99.90
38241;DHT22;24037;49.536;8.500;2023-12-07T03:16:00;-1.50;99.90
38241;DHT22;24037;49.536;8.500;2023-12-07T03:18:26;-1.50;99.90
38241;DHT22;24037;49.536;8.500;2023-12-07T03:20:53;-1.50;99.90
38241;DHT22;24037;49.536;8.500;2023-12-07T03:23:19;-1.50;99.90
38241;DHT22;24037;49.536;8.500;2023-12-07T03:25:45;-1.50;99.90
38241;DHT22;24037;49.536;8.500;2023-12-07T03:28:11;-1.50;99.90
38241;DHT22;24037;49.536;8.500;2023-12-07T03:30:38;-1.50;99.90
38241;DHT22;24037;49.536;8.500;2023-12-07T03:33:04;-1.60;99.90
38241;DHT22;24037;49.536;8.500;2023-12-07T03:35:30;-1.60;99.90
38241;DHT22;24037;49.536;8.500;2023-12-07T03:37:56;-1.60;99.90
38241;DHT22;24037;49.536;8.500;2023-12-07T03:40:22;-1.60;99.90
38241;DHT22;24037;49.536;8.500;2023-12-07T03:42:49;-1.70;99.90
38241;DHT22;24037;49.536;8.500;2023-12-07T03:45:15;-1.60;99.90
38241;DHT22;24037;49.536;8.500;2023-12-07T03:47:41;-1.60;99.90
38241;DHT22;24037;49.536;8.500;2023-12-07T03:50:07;-1.70;99.90
38241;DHT22;24037;49.536;8.500;2023-12-07T03:52:34;-1.70;99.90
38241;DHT22;24037;49.536;8.500;2023-12-07T03:55:00;-1.80;99.90
38241;DHT22;24037;49.536;8.500;2023-12-07T03:57:26;-1.80;99.90
38241;DHT22;24037;49.536;8.500;2023-12-07T03:59:52;-1.80;99.90
38241;DHT22;24037;49.536;8.500;2023-12-07T04:02:19;-1.80;99.90
38241;DHT22;24037;49.536;8.500;2023-12-07T04:04:45;-1.80;99.90
38241;DHT22;24037;49.536;8.500;2023-12-07T04:07:12;-1.70;99.90
38241;DHT22;24037;49.536;8.500;2023-12-07T04:09:38;-1.70;99.90
38241;DHT22;24037;49.536;8.500;2023-12-07T04:12:04;-1.70;99.90
38241;DHT22;24037;49.536;8.500;2023-12-07T04:14:30;-1.70;99.90
38241;DHT22;24037;49.536;8.500;2023-12-07T04:16:56;-1.70;99.90
38241;DHT22;24037;49.536;8.500;2023-12-07T04:19:23;-1.70;99.90
38241;DHT22;24037;49.536;8.500;2023-12-07T04:21:49;-1.70;99.90
38241;DHT22;24037;49.536;8.500;2023-12-07T04:24:15;-1.70;99.90
38241;DHT22;24037;49.536;8.500;2023-12-07T04:26:41;-1.70;99.90
38241;DHT22;24037;49.536;8.500;2023-12-07T04:29:07;-1.80;99.90
38241;DHT22;24037;49.536;8.500;2023-12-07T04:31:33;-1.80;99.90
38241;DHT22;24037;49.536;8.500;2023-12-07T04:34:01;-1.80;99.90
38241;DHT22;24037;49.536;8.500;2023-12-07T04:36:27;-1.70;99.90
38241;DHT22;24037;49.536;8.500;2023-12-07T04:38:54;-1.70;99.90
38241;DHT22;24037;49.536;8.500;2023-12-07T04:41:20;-1.80;99.90
38241;DHT22;24037;49.536;8.500;2023-12-07T04:43:46;-1.80;99.90
38241;DHT22;24037;49.536;8.500;2023-12-07T04:46:12;-1.80;99.90
38241;DHT22;24037;49.536;8.500;2023-12-07T04:48:38;-1.70;99.90
38241;DHT22;24037;49.536;8.500;2023-12-07T04:51:06;-1.70;99.90
38241;DHT22;24037;49.536;8.500;2023-12-07T04:53:32;-1.70;99.90
38241;DHT22;24037;49.536;8.500;2023-12-07T04:55:59;-1.60;99.90
38241;DHT22;24037;49.536;8.500;2023-12-07T04:58:25;-1.60;99.90
38241;DHT22;24037;49.536;8.500;2023-12-07T05:00:51;-1.60;99.90
38241;DHT22;24037;49.536;8.500;2023-12-07T05:03:17;-1.70;99.90
38241;DHT22;24037;49.536;8.500;2023-12-07T05:05:43;-1.70;99.90
38241;DHT22;24037;49.536;8.500;2023-12-07T05:08:09;-1.70;99.90
38241;DHT22;24037;49.536;8.500;2023-12-07T05:10:36;-1.70;99.90
38241;DHT22;24037;49.536;8.500;2023-12-07T05:13:02;-1.70;99.90
38241;DHT22;24037;49.536;8.500;2023-12-07T05:15:28;-1.80;99.90
38241;DHT22;24037;49.536;8.500;2023-12-07T05:17:54;-1.80;99.90
38241;DHT22;24037;49.536;8.500;2023-12-07T05:20:20;-1.90;99.90
38241;DHT22;24037;49.536;8.500;2023-12-07T05:22:48;-1.90;99.90
38241;DHT22;24037;49.536;8.500;2023-12-07T05:25:14;-2.00;99.90
38241;DHT22;24037;49.536;8.500;2023-12-07T05:27:41;-2.00;99.90
38241;DHT22;24037;49.536;8.500;2023-12-07T05:30:07;-2.10;99.90
38241;DHT22;24037;49.536;8.500;2023-12-07T05:32:33;-2.00;99.90
38241;DHT22;24037;49.536;8.500;2023-12-07T05:35:00;-2.00;99.90
38241;DHT22;24037;49.536;8.500;2023-12-07T05:37:26;-2.00;99.90
38241;DHT22;24037;49.536;8.500;2023-12-07T05:39:52;-2.00;99.90
38241;DHT22;24037;49.536;8.500;2023-12-07T05:42:18;-2.00;99.90
38241;DHT22;24037;49.536;8.500;2023-12-07T05:44:44;-2.00;99.90
38241;DHT22;24037;49.536;8.500;2023-12-07T05:47:11;-2.10;99.90
38241;DHT22;24037;49.536;8.500;2023-12-07T05:49:37;-2.20;99.90
38241;DHT22;24037;49.536;8.500;2023-12-07T05:52:03;-2.20;99.90
38241;DHT22;24037;49.536;8.500;2023-12-07T05:54:29;-2.20;99.90
38241;DHT22;24037;49.536;8.500;2023-12-07T05:56:56;-2.10;99.90
38241;DHT22;24037;49.536;8.500;2023-12-07T05:59:22;-2.20;99.90
38241;DHT22;24037;49.536;8.500;2023-12-07T06:01:51;-2.30;99.90
38241;DHT22;24037;49.536;8.500;2023-12-07T06:04:17;-2.30;99.90
38241;DHT22;24037;49.536;8.500;2023-12-07T06:06:43;-2.30;99.90
38241;DHT22;24037;49.536;8.500;2023-12-07T06:09:09;-2.30;99.90
38241;DHT22;24037;49.536;8.500;2023-12-07T06:11:36;-2.30;99.90
38241;DHT22;24037;49.536;8.500;2023-12-07T06:14:02;-2.30;99.90
38241;DHT22;24037;49.536;8.500;2023-12-07T06:16:28;-2.40;99.90
38241;DHT22;24037;49.536;8.500;2023-12-07T06:18:55;-2.40;99.90
38241;DHT22;24037;49.536;8.500;2023-12-07T06:21:21;-2.40;99.90
38241;DHT22;24037;49.536;8.500;2023-12-07T06:23:47;-2.40;99.90
38241;DHT22;24037;49.536;8.500;2023-12-07T06:26:13;-2.50;99.90
38241;DHT22;24037;49.536;8.500;2023-12-07T06:28:39;-2.50;99.90
38241;DHT22;24037;49.536;8.500;2023-12-07T06:31:06;-2.60;99.90
38241;DHT22;24037;49.536;8.500;2023-12-07T06:33:33;-2.60;99.90
38241;DHT22;24037;49.536;8.500;2023-12-07T06:36:01;-2.60;99.90
38241;DHT22;24037;49.536;8.500;2023-12-07T06:38:29;-2.70;99.90
38241;DHT22;24037;49.536;8.500;2023-12-07T06:40:55;-2.70;99.90
38241;DHT22;24037;49.536;8.500;2023-12-07T06:43:22;-2.70;99.90
38241;DHT22;24037;49.536;8.500;2023-12-07T06:45:48;-2.70;99.90
38241;DHT22;24037;49.536;8.500;2023-12-07T06:48:14;-2.70;99.90
38241;DHT22;24037;49.536;8.500;2023-12-07T06:50:41;-2.60;99.90
38241;DHT22;24037;49.536;8.500;2023-12-07T06:53:07;-2.60;99.90
38241;DHT22;24037;49.536;8.500;2023-12-07T06:55:33;-2.60;99.90
38241;DHT22;24037;49.536;8.500;2023-12-07T06:57:59;-2.60;99.90
38241;DHT22;24037;49.536;8.500;2023-12-07T07:00:26;-2.60;99.90
38241;DHT22;24037;49.536;8.500;2023-12-07T07:02:52;-2.70;99.90
38241;DHT22;24037;49.536;8.500;2023-12-07T07:05:18;-2.70;99.90
38241;DHT22;24037;49.536;8.500;2023-12-07T07:07:45;-2.70;99.90
38241;DHT22;24037;49.536;8.500;2023-12-07T07:10:12;-2.70;99.90
38241;DHT22;24037;49.536;8.500;2023-12-07T07:12:38;-2.70;99.90
38241;DHT22;24037;49.536;8.500;2023-12-07T07:15:07;-2.70;99.90
38241;DHT22;24037;49.536;8.500;2023-12-07T07:17:33;-2.80;99.90
38241;DHT22;24037;49.536;8.500;2023-12-07T07:19:59;-2.70;99.90
38241;DHT22;24037;49.536;8.500;2023-12-07T07:22:25;-2.80;99.90
38241;DHT22;24037;49.536;8.500;2023-12-07T07:24:51;-2.70;99.90
38241;DHT22;24037;49.536;8.500;2023-12-07T07:27:18;-2.80;99.90
38241;DHT22;24037;49.536;8.500;2023-12-07T07:29:44;-2.80;99.90
38241;DHT22;24037;49.536;8.500;2023-12-07T07:32:12;-2.70;99.90
38241;DHT22;24037;49.536;8.500;2023-12-07T07:34:38;-2.70;99.90
38241;DHT22;24037;49.536;8.500;2023-12-07T07:37:05;-2.70;99.90
38241;DHT22;24037;49.536;8.500;2023-12-07T07:39:33;-2.60;99.90
38241;DHT22;24037;49.536;8.500;2023-12-07T07:41:59;-2.70;99.90
38241;DHT22;24037;49.536;8.500;2023-12-07T07:44:25;-2.60;99.90
38241;DHT22;24037;49.536;8.500;2023-12-07T07:46:52;-2.50;99.90
38241;DHT22;24037;49.536;8.500;2023-12-07T07:49:18;-2.50;99.90
38241;DHT22;24037;49.536;8.500;2023-12-07T07:51:44;-2.40;99.90
38241;DHT22;24037;49.536;8.500;2023-12-07T07:54:10;-2.30;99.90
38241;DHT22;24037;49.536;8.500;2023-12-07T07:56:36;-2.30;99.90
38241;DHT22;24037;49.536;8.500;2023-12-07T07:59:03;-2.20;99.90
38241;DHT22;24037;49.536;8.500;2023-12-07T08:01:29;-2.20;99.90
38241;DHT22;24037;49.536;8.500;2023-12-07T08:03:56;-2.10;99.90
38241;DHT22;24037;49.536;8.500;2023-12-07T08:06:22;-2.10;99.90
38241;DHT22;24037;49.536;8.500;2023-12-07T08:08:48;-2.00;99.90
38241;DHT22;24037;49.536;8.500;2023-12-07T08:11:15;-1.80;99.90
38241;DHT22;24037;49.536;8.500;2023-12-07T08:13:41;-1.70;99.90
38241;DHT22;24037;49.536;8.500;2023-12-07T08:16:08;-1.60;99.90
38241;DHT22;24037;49.536;8.500;2023-12-07T08:18:35;-1.60;99.90
38241;DHT22;24037;49.536;8.500;2023-12-07T08:21:02;-1.60;99.90
38241;DHT22;24037;49.536;8.500;2023-12-07T08:23:28;-1.50;99.90
38241;DHT22;24037;49.536;8.500;2023-12-07T08:25:54;-1.40;99.90
38241;DHT22;24037;49.536;8.500;2023-12-07T08:28:23;-1.20;99.90
38241;DHT22;24037;49.536;8.500;2023-12-07T08:30:49;-1.00;99.90
38241;DHT22;24037;49.536;8.500;2023-12-07T08:33:15;-0.80;99.90
38241;DHT22;24037;49.536;8.500;2023-12-07T08:35:41;-0.70;99.90
38241;DHT22;24037;49.536;8.500;2023-12-07T08:38:07;-0.50;99.90
38241;DHT22;24037;49.536;8.500;2023-12-07T08:40:33;-0.30;99.90
38241;DHT22;24037;49.536;8.500;2023-12-07T08:43:00;-0.20;99.90
38241;DHT22;24037;49.536;8.500;2023-12-07T08:45:26;0.00;99.90
38241;DHT22;24037;49.536;8.500;2023-12-07T08:47:52;0.10;99.90
38241;DHT22;24037;49.536;8.500;2023-12-07T08:50:18;0.30;99.90
38241;DHT22;24037;49.536;8.500;2023-12-07T08:52:44;0.30;99.90
38241;DHT22;24037;49.536;8.500;2023-12-07T08:55:11;0.40;99.90
38241;DHT22;24037;49.536;8.500;2023-12-07T08:57:37;0.40;99.90
38241;DHT22;24037;49.536;8.500;2023-12-07T09:00:03;0.60;99.90
38241;DHT22;24037;49.536;8.500;2023-12-07T09:02:30;0.60;99.90
38241;DHT22;24037;49.536;8.500;2023-12-07T09:04:56;0.70;99.90
38241;DHT22;24037;49.536;8.500;2023-12-07T09:07:22;0.70;99.90
38241;DHT22;24037;49.536;8.500;2023-12-07T09:09:48;0.80;99.90
38241;DHT22;24037;49.536;8.500;2023-12-07T09:12:14;0.80;99.90
38241;DHT22;24037;49.536;8.500;2023-12-07T09:14:42;0.90;99.90
38241;DHT22;24037;49.536;8.500;2023-12-07T09:17:08;1.10;99.90
38241;DHT22;24037;49.536;8.500;2023-12-07T09:19:34;1.10;99.90
38241;DHT22;24037;49.536;8.500;2023-12-07T09:22:00;1.00;99.90
38241;DHT22;24037;49.536;8.500;2023-12-07T09:24:26;1.10;99.90
38241;DHT22;24037;49.536;8.500;2023-12-07T09:26:53;1.10;99.90
38241;DHT22;24037;49.536;8.500;2023-12-07T09:29:19;1.10;99.90
38241;DHT22;24037;49.536;8.500;2023-12-07T09:31:45;1.20;99.90
38241;DHT22;24037;49.536;8.500;2023-12-07T09:34:11;1.20;99.90
38241;DHT22;24037;49.536;8.500;2023-12-07T09:36:44;1.20;99.90
38241;DHT22;24037;49.536;8.500;2023-12-07T09:39:11;1.20;99.90
38241;DHT22;24037;49.536;8.500;2023-12-07T09:41:39;1.20;99.90
38241;DHT22;24037;49.536;8.500;2023-12-07T09:44:05;1.20;99.90
38241;DHT22;24037;49.536;8.500;2023-12-07T09:46:31;1.30;99.90
38241;DHT22;24037;49.536;8.500;2023-12-07T09:48:58;1.40;99.90
38241;DHT22;24037;49.536;8.500;2023-12-07T09:51:24;1.40;99.90
38241;DHT22;24037;49.536;8.500;2023-12-07T09:53:52;1.50;99.90
38241;DHT22;24037;49.536;8.500;2023-12-07T09:56:18;1.50;99.90
38241;DHT22;24037;49.536;8.500;2023-12-07T09:58:45;1.60;99.90
38241;DHT22;24037;49.536;8.500;2023-12-07T10:01:11;1.60;99.90
38241;DHT22;24037;49.536;8.500;2023-12-07T10:03:40;1.70;99.90
38241;DHT22;24037;49.536;8.500;2023-12-07T10:06:07;1.70;99.90
38241;DHT22;24037;49.536;8.500;2023-12-07T10:08:34;1.70;99.90
38241;DHT22;24037;49.536;8.500;2023-12-07T10:11:05;1.80;99.90
38241;DHT22;24037;49.536;8.500;2023-12-07T10:13:32;1.70;99.90
38241;DHT22;24037;49.536;8.500;2023-12-07T10:16:14;1.80;99.90
38241;DHT22;24037;49.536;8.500;2023-12-07T10:18:41;1.80;99.90
38241;DHT22;24037;49.536;8.500;2023-12-07T10:21:08;2.00;99.90
38241;DHT22;24037;49.536;8.500;2023-12-07T10:23:37;2.00;99.90
38241;DHT22;24037;49.536;8.500;2023-12-07T10:26:05;2.20;99.90
38241;DHT22;24037;49.536;8.500;2023-12-07T10:28:36;2.40;99.90
38241;DHT22;24037;49.536;8.500;2023-12-07T10:31:03;2.50;99.90
38241;DHT22;24037;49.536;8.500;2023-12-07T10:33:29;2.50;99.90
38241;DHT22;24037;49.536;8.500;2023-12-07T10:35:56;2.50;99.90
38241;DHT22;24037;49.536;8.500;2023-12-07T10:38:22;2.60;99.90
38241;DHT22;24037;49.536;8.500;2023-12-07T10:40:50;2.60;99.90
38241;DHT22;24037;49.536;8.500;2023-12-07T10:43:23;2.80;99.90
38241;DHT22;24037;49.536;8.500;2023-12-07T10:45:49;2.90;99.90
38241;DHT22;24037;49.536;8.500;2023-12-07T10:48:16;2.90;99.90
38241;DHT22;24037;49.536;8.500;2023-12-07T10:50:46;2.90;99.90
38241;DHT22;24037;49.536;8.500;2023-12-07T10:53:27;3.10;99.90
38241;DHT22;24037;49.536;8.500;2023-12-07T10:55:56;2.90;99.90
38241;DHT22;24037;49.536;8.500;2023-12-07T10:58:23;3.00;99.90
38241;DHT22;24037;49.536;8.500;2023-12-07T11:00:54;3.10;85.20
38241;DHT22;24037;49.536;8.500;2023-12-07T11:03:21;3.00;45.40
38241;DHT22;24037;49.536;8.500;2023-12-07T11:05:48;3.10;36.70
38241;DHT22;24037;49.536;8.500;2023-12-07T11:08:49;3.10;1.00
38241;DHT22;24037;49.536;8.500;2023-12-07T11:11:28;3.20;1.00
38241;DHT22;24037;49.536;8.500;2023-12-07T11:14:05;3.30;1.00
38241;DHT22;24037;49.536;8.500;2023-12-07T11:16:36;3.40;1.00
38241;DHT22;24037;49.536;8.500;2023-12-07T11:19:03;3.50;1.00
38241;DHT22;24037;49.536;8.500;2023-12-07T11:21:33;3.70;1.00
38241;DHT22;24037;49.536;8.500;2023-12-07T11:24:00;3.50;99.90
38241;DHT22;24037;49.536;8.500;2023-12-07T11:26:28;3.20;1.00
38241;DHT22;24037;49.536;8.500;2023-12-07T11:28:55;3.10;1.00
38241;DHT22;24037;49.536;8.500;2023-12-07T11:31:22;3.00;1.00
38241;DHT22;24037;49.536;8.500;2023-12-07T11:33:48;2.90;1.00
38241;DHT22;24037;49.536;8.500;2023-12-07T11:36:15;2.80;1.00
38241;DHT22;24037;49.536;8.500;2023-12-07T11:41:43;2.80;1.00
38241;DHT22;24037;49.536;8.500;2023-12-07T11:44:12;2.80;1.00
38241;DHT22;24037;49.536;8.500;2023-12-07T11:46:39;2.80;1.00
38241;DHT22;24037;49.536;8.500;2023-12-07T11:49:05;2.80;1.00
38241;DHT22;24037;49.536;8.500;2023-12-07T11:51:36;2.90;1.00
38241;DHT22;24037;49.536;8.500;2023-12-07T11:54:03;2.90;1.00
38241;DHT22;24037;49.536;8.500;2023-12-07T11:56:29;2.90;1.00
38241;DHT22;24037;49.536;8.500;2023-12-07T11:58:56;2.70;1.00
38241;DHT22;24037;49.536;8.500;2023-12-07T12:01:25;2.70;1.00
38241;DHT22;24037;49.536;8.500;2023-12-07T12:03:51;2.70;1.00
38241;DHT22;24037;49.536;8.500;2023-12-07T12:06:17;2.80;1.00
38241;DHT22;24037;49.536;8.500;2023-12-07T12:08:43;2.90;1.00
38241;DHT22;24037;49.536;8.500;2023-12-07T12:11:10;2.90;1.00
38241;DHT22;24037;49.536;8.500;2023-12-07T12:13:36;2.90;1.00
38241;DHT22;24037;49.536;8.500;2023-12-07T12:16:03;2.90;1.00
38241;DHT22;24037;49.536;8.500;2023-12-07T12:18:30;2.70;1.00
38241;DHT22;24037;49.536;8.500;2023-12-07T12:20:56;2.60;1.00
38241;DHT22;24037;49.536;8.500;2023-12-07T12:23:25;2.80;1.00
38241;DHT22;24037;49.536;8.500;2023-12-07T12:25:51;2.90;1.00
38241;DHT22;24037;49.536;8.500;2023-12-07T12:28:18;2.90;1.00
38241;DHT22;24037;49.536;8.500;2023-12-07T12:30:48;2.80;1.00
38241;DHT22;24037;49.536;8.500;2023-12-07T12:33:14;2.80;1.00
38241;DHT22;24037;49.536;8.500;2023-12-07T12:35:41;2.70;1.00
38241;DHT22;24037;49.536;8.500;2023-12-07T12:38:11;2.60;1.00
38241;DHT22;24037;49.536;8.500;2023-12-07T12:40:38;2.40;1.00
38241;DHT22;24037;49.536;8.500;2023-12-07T12:43:05;2.30;1.00
38241;DHT22;24037;49.536;8.500;2023-12-07T12:45:33;2.40;20.60
38241;DHT22;24037;49.536;8.500;2023-12-07T12:47:59;2.50;22.90
38241;DHT22;24037;49.536;8.500;2023-12-07T12:50:37;2.60;2.40
38241;DHT22;24037;49.536;8.500;2023-12-07T12:53:04;2.60;1.00
38241;DHT22;24037;49.536;8.500;2023-12-07T12:55:36;2.50;1.00
38241;DHT22;24037;49.536;8.500;2023-12-07T12:58:03;2.50;1.00
38241;DHT22;24037;49.536;8.500;2023-12-07T13:00:31;2.50;1.00
38241;DHT22;24037;49.536;8.500;2023-12-07T13:03:04;2.60;1.70
38241;DHT22;24037;49.536;8.500;2023-12-07T13:05:31;2.50;1.00
38241;DHT22;24037;49.536;8.500;2023-12-07T13:08:01;2.40;1.00
38241;DHT22;24037;49.536;8.500;2023-12-07T13:10:28;2.40;1.00
38241;DHT22;24037;49.536;8.500;2023-12-07T13:12:54;2.40;22.60
38241;DHT22;24037;49.536;8.500;2023-12-07T13:15:21;2.40;5.60
38241;DHT22;24037;49.536;8.500;2023-12-07T13:17:48;2.40;19.00
38241;DHT22;24037;49.536;8.500;2023-12-07T13:20:14;2.40;44.40
38241;DHT22;24037;49.536;8.500;2023-12-07T13:22:41;2.40;62.90
38241;DHT22;24037;49.536;8.500;2023-12-07T13:25:09;2.40;71.00
38241;DHT22;24037;49.536;8.500;2023-12-07T13:27:36;2.40;82.50
38241;DHT22;24037;49.536;8.500;2023-12-07T13:30:03;2.30;50.40
38241;DHT22;24037;49.536;8.500;2023-12-07T13:32:33;2.20;51.90
38241;DHT22;24037;49.536;8.500;2023-12-07T13:35:00;2.20;67.20
38241;DHT22;24037;49.536;8.500;2023-12-07T13:37:27;2.00;99.90
38241;DHT22;24037;49.536;8.500;2023-12-07T13:39:53;2.10;99.90
38241;DHT22;24037;49.536;8.500;2023-12-07T13:42:27;2.00;99.90
38241;DHT22;24037;49.536;8.500;2023-12-07T13:44:57;2.10;99.90
38241;DHT22;24037;49.536;8.500;2023-12-07T13:47:28;2.10;99.90
38241;DHT22;24037;49.536;8.500;2023-12-07T13:49:58;2.10;99.90
38241;DHT22;24037;49.536;8.500;2023-12-07T13:52:24;2.10;99.90
38241;DHT22;24037;49.536;8.500;2023-12-07T13:54:51;2.10;99.90
38241;DHT22;24037;49.536;8.500;2023-12-07T13:57:19;2.10;99.90
38241;DHT22;24037;49.536;8.500;2023-12-07T13:59:51;2.00;99.90
38241;DHT22;24037;49.536;8.500;2023-12-07T14:02:17;2.00;99.90
38241;DHT22;24037;49.536;8.500;2023-12-07T14:04:44;2.00;99.90
38241;DHT22;24037;49.536;8.500;2023-12-07T14:07:12;2.10;99.90
38241;DHT22;24037;49.536;8.500;2023-12-07T14:09:41;2.10;99.90
38241;DHT22;24037;49.536;8.500;2023-12-07T14:12:09;2.10;99.90
38241;DHT22;24037;49.536;8.500;2023-12-07T14:14:46;2.20;99.90
38241;DHT22;24037;49.536;8.500;2023-12-07T14:17:13;2.10;99.90
38241;DHT22;24037;49.536;8.500;2023-12-07T14:19:40;2.00;99.90
38241;DHT22;24037;49.536;8.500;2023-12-07T14:22:07;1.90;99.90
38241;DHT22;24037;49.536;8.500;2023-12-07T14:24:35;1.90;99.90
38241;DHT22;24037;49.536;8.500;2023-12-07T14:27:06;1.90;99.90
38241;DHT22;24037;49.536;8.500;2023-12-07T14:29:33;1.90;99.90
38241;DHT22;24037;49.536;8.500;2023-12-07T14:31:59;1.80;99.90
38241;DHT22;24037;49.536;8.500;2023-12-07T14:34:26;1.90;99.90
38241;DHT22;24037;49.536;8.500;2023-12-07T14:36:53;1.80;99.90
38241;DHT22;24037;49.536;8.500;2023-12-07T14:39:19;1.70;99.90
38241;DHT22;24037;49.536;8.500;2023-12-07T14:41:48;1.60;99.90
38241;DHT22;24037;49.536;8.500;2023-12-07T14:44:15;1.70;99.90
38241;DHT22;24037;49.536;8.500;2023-12-07T14:46:45;1.60;99.90
38241;DHT22;24037;49.536;8.500;2023-12-07T14:49:12;1.60;99.90
38241;DHT22;24037;49.536;8.500;2023-12-07T14:51:39;1.70;99.90
38241;DHT22;24037;49.536;8.500;2023-12-07T14:54:06;1.60;99.90
38241;DHT22;24037;49.536;8.500;2023-12-07T14:56:33;1.60;99.90
38241;DHT22;24037;49.536;8.500;2023-12-07T14:59:02;1.60;99.90
38241;DHT22;24037;49.536;8.500;2023-12-07T15:01:29;1.60;99.90
38241;DHT22;24037;49.536;8.500;2023-12-07T15:03:56;1.50;99.90
38241;DHT22;24037;49.536;8.500;2023-12-07T15:06:23;1.50;99.90
38241;DHT22;24037;49.536;8.500;2023-12-07T15:08:50;1.40;99.90
38241;DHT22;24037;49.536;8.500;2023-12-07T15:11:17;1.30;99.90
38241;DHT22;24037;49.536;8.500;2023-12-07T15:13:43;1.30;99.90
38241;DHT22;24037;49.536;8.500;2023-12-07T15:16:10;1.30;99.90
38241;DHT22;24037;49.536;8.500;2023-12-07T15:18:36;1.20;99.90
38241;DHT22;24037;49.536;8.500;2023-12-07T15:21:03;1.10;99.90
38241;DHT22;24037;49.536;8.500;2023-12-07T15:23:30;1.10;99.90
38241;DHT22;24037;49.536;8.500;2023-12-07T15:25:58;1.00;99.90
38241;DHT22;24037;49.536;8.500;2023-12-07T15:28:24;1.00;99.90
38241;DHT22;24037;49.536;8.500;2023-12-07T15:30:50;0.90;99.90
38241;DHT22;24037;49.536;8.500;2023-12-07T15:33:16;0.90;99.90
38241;DHT22;24037;49.536;8.500;2023-12-07T15:35:43;0.80;99.90
38241;DHT22;24037;49.536;8.500;2023-12-07T15:38:09;0.70;99.90
38241;DHT22;24037;49.536;8.500;2023-12-07T15:40:39;0.70;99.90
38241;DHT22;24037;49.536;8.500;2023-12-07T15:43:06;0.70;99.90
38241;DHT22;24037;49.536;8.500;2023-12-07T15:45:32;0.60;99.90